Traditional Chinese Simplified Chinese
Climatological Information for Light Snow recorded at Hong Kong Observatory
dotted-line

Climatological Information for Light Snow recorded at
Hong Kong Observatory
(Period: 1947 - 2016)

Go To WINTER COMMENCESGo To HEAVY SNOW
Day
(yyyy-mm-dd)
Air Temperature Daily
Relative
Humidity
(%)
Daily
Total
Rainfall
(mm)
Daily
Total
Cloud Amount
(%)
Maximum
(Degree C)
Mean
(Degree C)
Minimum
(Degree C)
1947-11-23 22.9 19.3 17.2 80 - ###
1948-11-22 22.1 20.0 17.2 81 0.3 ###
1949-11-22 25.7 21.3 17.8 68 - 15
1950-11-23 23.4 22.4 21.7 97 16.9 99
1951-11-23 21.6 16.7 12.2 65 - 50
1952-11-22 23.2 20.6 18.1 71 Trace 37
1953-11-22 25.7 20.7 16.3 62 - 50
1954-11-23 22.7 20.4 17.7 73 1.2 90
1955-11-23 21.5 17.7 13.5 56 - 1
1956-11-22 22.3 18.9 14.7 67 4.7 94
1957-11-22 21.2 19.9 18.7 68 - 40
1958-11-23 21.7 17.3 13.7 32 - 1
1959-11-23 24.6 21.8 20.4 78 - 27
1960-11-22 28.2 24.8 22.6 84 - 69
1961-11-22 19.7 17.9 15.9 67 - 73
1962-11-23 20.6 18.5 16.3 66 - 83
1963-11-23 23.7 22.1 21.0 71 - 33
1964-11-22 23.4 20.3 17.5 33 - 23
1965-11-22 23.7 21.5 19.4 67 - 62
1966-11-23 23.6 21.0 18.2 61 - 72
1967-11-23 24.1 21.6 19.7 73 Trace 66
1968-11-22 25.3 22.4 20.7 72 - 52
1969-11-22 24.7 21.3 19.0 65 Trace 70
1970-11-23 20.6 19.7 18.9 74 Trace 92
1971-11-23 23.8 20.0 17.3 32 - 52
1972-11-22 19.3 18.3 17.6 89 0.3 97
1973-11-22 24.5 20.2 16.8 50 - 17
1974-11-23 24.6 20.4 17.9 60 - 4
1975-11-23 17.1 14.2 10.2 42 - 3
1976-11-22 20.7 16.6 13.6 47 - 7
1977-11-22 24.0 20.6 18.7 45 - 64
1978-11-23 23.0 20.1 17.6 67 - 13
1979-11-23 16.6 14.8 12.9 59 Trace 93
1980-11-22 25.1 22.0 20.1 71 - 43
1981-11-22 22.3 21.3 19.6 80 0.3 83
1982-11-22 25.7 23.7 22.1 80 - 54
1983-11-23 22.7 19.6 16.8 48 - 7
1984-11-22 22.8 19.7 16.6 66 - 16
1985-11-22 25.5 24.0 23.1 93 12.7 79
1986-11-22 24.0 21.2 18.5 71 - 28
1987-11-23 26.4 23.8 22.4 88 Trace 65
1988-11-22 23.0 20.8 19.2 79 - 49
1989-11-22 22.9 20.7 18.4 60 Trace 77
1990-11-22 22.1 20.0 18.1 70 - 54
1991-11-23 26.9 23.8 21.1 74 Trace 61
1992-11-22 21.1 18.8 17.2 68 - 69
1993-11-22 18.8 16.0 11.9 66 - 51
1994-11-22 24.5 22.2 20.2 71 Trace 39
1995-11-23 23.2 19.4 17.0 48 - 10
1996-11-22 24.2 22.1 20.7 70 - 66
1997-11-22 26.9 24.4 22.3 82 - 24
1998-11-22 24.5 22.4 20.1 60 - 62
1999-11-23 26.1 23.1 21.0 78 - 23
2000-11-22 19.9 17.6 14.7 64 - 7
2001-11-22 21.8 19.6 17.3 62 - 3
2002-11-22 22.4 20.6 18.8 72 - 65
2003-11-23 21.9 20.6 19.1 72 - 53
2004-11-22 23.9 21.7 19.4 69 - 34
2005-11-22 21.8 19.1 16.2 63 - 28
2006-11-22 21.9 20.7 19.4 94 9.7 95
2007-11-23 23.0 20.6 18.2 69 - 71
2008-11-22 23.3 21.4 19.1 70 - 85
2009-11-22 19.1 15.9 13.0 56 - 42
2010-11-22 25.4 22.5 20.3 73 - 51
2011-11-23 23.8 22.0 20.7 60 Trace 77
2012-11-22 27.2 25.1 22.6 88 0.4 79
2013-11-22 22.8 21.0 19.5 78 0.7 82
2014-11-22 24.6 22.4 20.7 80 - 40
2015-11-22 27.6 25.4 24.0 78 Trace 65
2016-11-22 24.5 22.7 21.6 95 36.5 95
Maximum
28.2 25.4 24.0 97 36.5 99
Minimum
16.6 14.2 10.2 32 - 1
Normals
(1961-1990)
22.9 20.3 18.1 65 0.4 51
Normals
(1971-2000)
23.1 20.4 18.1 66 0.4 44
Normals
(1981-2010)
23.3 20.9 18.7 71 0.8 48
### means data not available
Column's Maximum in light red background colour
Column's Minimum in light blue background colour